createdAt,value
2022-08-09T00:01:58.288Z,97.00
2022-08-09T00:04:34.655Z,96.90
2022-08-09T00:07:10.374Z,96.90
2022-08-09T00:09:40.697Z,96.70
2022-08-09T00:12:15.626Z,96.70
2022-08-09T00:14:56.622Z,96.60
2022-08-09T00:18:06.116Z,96.60
2022-08-09T00:20:24.732Z,96.60
2022-08-09T00:22:52.704Z,96.40
2022-08-09T00:25:23.622Z,96.40
2022-08-09T00:28:04.525Z,96.40
2022-08-09T00:30:35.895Z,96.50
2022-08-09T00:33:06.237Z,96.50
2022-08-09T00:35:42.981Z,96.50
2022-08-09T00:38:12.895Z,96.50
2022-08-09T00:40:53.111Z,96.40
2022-08-09T00:44:16.635Z,96.50
2022-08-09T00:46:11.140Z,96.90
2022-08-09T00:48:56.575Z,96.40
2022-08-09T00:51:33.775Z,96.40
2022-08-09T00:54:02.418Z,96.50
2022-08-09T00:56:30.920Z,96.60
2022-08-09T00:59:10.632Z,96.60
2022-08-09T01:01:44.863Z,96.70
2022-08-09T01:04:19.157Z,96.70
2022-08-09T01:06:58.142Z,96.80
2022-08-09T01:09:37.105Z,96.80
2022-08-09T01:12:23.827Z,96.90
2022-08-09T01:15:05.835Z,97.00
2022-08-09T01:17:52.019Z,97.10
2022-08-09T01:20:39.183Z,97.20
2022-08-09T01:24:00.762Z,97.30
2022-08-09T01:26:53.933Z,97.50
2022-08-09T01:29:55.548Z,97.40
2022-08-09T01:32:45.389Z,97.60
2022-08-09T01:35:37.284Z,97.50
2022-08-09T01:38:14.966Z,97.40
2022-08-09T01:41:03.032Z,97.30
2022-08-09T01:43:42.008Z,97.40
2022-08-09T01:46:53.791Z,97.40
2022-08-09T01:49:24.182Z,97.50
2022-08-09T01:52:07.514Z,97.60
2022-08-09T01:54:51.856Z,97.60
2022-08-09T01:57:40.356Z,97.60
2022-08-09T02:00:35.279Z,97.70
2022-08-09T02:03:13.568Z,97.70
2022-08-09T02:06:03.179Z,97.70
2022-08-09T02:08:40.657Z,97.80
2022-08-09T02:11:21.182Z,97.80
2022-08-09T02:14:06.131Z,97.80
2022-08-09T02:16:53.036Z,97.80
2022-08-09T02:19:38.685Z,97.80
2022-08-09T02:22:38.920Z,97.90
2022-08-09T02:25:20.566Z,97.90
2022-08-09T02:28:00.377Z,97.90
2022-08-09T02:30:36.210Z,97.90
2022-08-09T02:33:18.445Z,98.00
2022-08-09T02:36:02.745Z,98.00
2022-08-09T02:38:47.835Z,98.10
2022-08-09T02:41:28.537Z,98.60
2022-08-09T02:44:10.324Z,98.00
2022-08-09T02:47:06.610Z,98.00
2022-08-09T02:50:01.842Z,98.00
2022-08-09T02:52:40.084Z,98.00
2022-08-09T02:55:20.718Z,98.00
2022-08-09T02:58:00.367Z,97.90
2022-08-09T03:00:48.000Z,98.60
2022-08-09T03:04:13.029Z,97.90
2022-08-09T03:06:25.041Z,98.00
2022-08-09T03:08:56.538Z,98.00
2022-08-09T03:12:04.295Z,98.00
2022-08-09T03:14:15.945Z,98.10
2022-08-09T03:16:48.040Z,98.20
2022-08-09T03:19:58.026Z,98.20
2022-08-09T03:22:25.712Z,98.20
2022-08-09T03:25:21.824Z,98.20
2022-08-09T03:27:55.362Z,98.20
2022-08-09T03:30:29.759Z,98.50
2022-08-09T03:33:17.782Z,98.40
2022-08-09T03:36:15.804Z,98.40
2022-08-09T03:38:48.856Z,98.50
2022-08-09T03:41:18.366Z,98.50
2022-08-09T03:44:02.992Z,98.50
2022-08-09T03:46:36.683Z,98.50
2022-08-09T03:49:08.821Z,98.50
2022-08-09T03:51:57.277Z,98.50
2022-08-09T03:54:38.249Z,98.50
2022-08-09T03:57:18.530Z,98.60
2022-08-09T03:59:56.061Z,98.60
2022-08-09T04:02:34.996Z,98.70
2022-08-09T04:05:06.706Z,98.80
2022-08-09T04:07:52.404Z,98.80
2022-08-09T04:10:28.906Z,98.80
2022-08-09T04:13:03.961Z,98.80
2022-08-09T04:16:19.844Z,98.90
2022-08-09T04:18:30.758Z,98.90
2022-08-09T04:21:03.222Z,99.00
2022-08-09T04:23:31.768Z,99.00
2022-08-09T04:26:01.573Z,99.00
2022-08-09T04:28:30.537Z,99.00
2022-08-09T04:31:05.926Z,99.00
2022-08-09T04:33:52.528Z,99.00
2022-08-09T04:36:24.340Z,99.00
2022-08-09T04:38:53.523Z,99.00
2022-08-09T04:41:33.274Z,99.10
2022-08-09T04:44:11.255Z,99.10
2022-08-09T04:46:58.705Z,99.10
2022-08-09T04:49:53.736Z,99.10
2022-08-09T04:52:26.533Z,99.10
2022-08-09T04:54:57.050Z,99.10
2022-08-09T04:57:25.792Z,99.20
2022-08-09T04:59:55.604Z,99.20
2022-08-09T05:02:28.264Z,99.20
2022-08-09T05:04:56.883Z,99.20
2022-08-09T05:07:31.839Z,99.30
2022-08-09T05:10:02.592Z,99.30
2022-08-09T05:12:33.036Z,99.30
2022-08-09T05:15:11.806Z,99.30
2022-08-09T05:18:39.320Z,99.30
2022-08-09T05:20:59.066Z,99.30
2022-08-09T05:23:54.967Z,99.40
2022-08-09T05:26:37.234Z,99.30
2022-08-09T05:29:17.260Z,99.40
2022-08-09T05:31:56.918Z,99.70
2022-08-09T05:34:32.935Z,99.20
2022-08-09T05:37:07.355Z,99.20
2022-08-09T05:39:44.849Z,99.30
2022-08-09T05:42:17.227Z,99.20
2022-08-09T05:44:58.287Z,99.30
2022-08-09T05:47:30.364Z,99.30
2022-08-09T05:50:25.211Z,99.40
2022-08-09T05:52:57.077Z,99.40
2022-08-09T05:55:26.119Z,99.40
2022-08-09T05:57:56.662Z,99.50
2022-08-09T06:00:35.673Z,99.50
2022-08-09T06:03:10.604Z,99.30
2022-08-09T06:05:57.073Z,99.30
2022-08-09T06:08:33.963Z,99.30
2022-08-09T06:11:01.870Z,99.20
2022-08-09T06:13:47.390Z,99.50
2022-08-09T06:16:18.597Z,99.70
2022-08-09T06:18:46.417Z,99.90
2022-08-09T06:21:16.349Z,99.90
2022-08-09T06:23:58.083Z,99.90
2022-08-09T06:26:40.706Z,99.90
2022-08-09T06:29:14.906Z,99.90
2022-08-09T06:32:08.537Z,99.90
2022-08-09T06:34:33.790Z,99.90
2022-08-09T06:37:01.907Z,99.80
2022-08-09T06:39:38.798Z,99.80
2022-08-09T06:42:24.574Z,99.80
2022-08-09T06:44:58.514Z,99.80
2022-08-09T06:47:40.084Z,99.80
2022-08-09T06:50:22.467Z,99.90
2022-08-09T06:52:50.402Z,99.90
2022-08-09T06:55:24.069Z,99.90
2022-08-09T06:58:03.607Z,99.80
2022-08-09T07:00:56.986Z,99.80
2022-08-09T07:03:28.620Z,99.70
2022-08-09T07:06:04.477Z,99.80
2022-08-09T07:08:39.511Z,99.90
2022-08-09T07:11:08.254Z,99.90
2022-08-09T07:13:45.534Z,99.90
2022-08-09T07:16:42.209Z,99.80
2022-08-09T07:19:23.373Z,99.40
2022-08-09T07:21:57.586Z,99.20
2022-08-09T07:24:31.903Z,99.40
2022-08-09T07:27:01.966Z,99.50
2022-08-09T07:29:37.880Z,99.20
2022-08-09T07:32:07.414Z,98.90
2022-08-09T07:34:35.837Z,98.50
2022-08-09T07:37:04.245Z,98.30
2022-08-09T07:39:41.324Z,98.20
2022-08-09T07:42:11.447Z,97.90
2022-08-09T07:44:53.042Z,97.70
2022-08-09T07:47:28.166Z,97.40
2022-08-09T07:50:07.829Z,96.90
2022-08-09T07:52:38.506Z,96.70
2022-08-09T07:55:09.788Z,96.50
2022-08-09T07:57:47.254Z,96.80
2022-08-09T08:00:35.949Z,97.00
2022-08-09T08:03:08.043Z,97.00
2022-08-09T08:05:57.242Z,96.80
2022-08-09T08:09:00.268Z,96.40
2022-08-09T08:12:19.801Z,95.30
2022-08-09T08:14:09.008Z,94.50
2022-08-09T08:16:39.571Z,94.00
2022-08-09T08:19:10.511Z,92.50
2022-08-09T08:21:39.520Z,92.80
2022-08-09T08:24:11.851Z,92.10
2022-08-09T08:26:55.084Z,92.80
2022-08-09T08:29:28.154Z,92.30
2022-08-09T08:32:04.028Z,92.60
2022-08-09T08:34:34.738Z,92.30
2022-08-09T08:37:06.613Z,91.70
2022-08-09T08:39:44.651Z,91.70
2022-08-09T08:42:12.907Z,91.80
2022-08-09T08:44:42.976Z,91.70
2022-08-09T08:47:14.773Z,91.30
2022-08-09T08:49:46.779Z,90.60
2022-08-09T08:55:19.053Z,87.50
2022-08-09T08:57:58.281Z,88.50
2022-08-09T09:00:34.098Z,86.80
2022-08-09T09:03:08.402Z,85.00
2022-08-09T09:05:59.695Z,83.00
2022-08-09T09:08:42.253Z,81.20
2022-08-09T09:11:13.636Z,78.30
2022-08-09T09:13:57.377Z,79.00
2022-08-09T09:16:32.293Z,78.80
2022-08-09T09:22:05.397Z,78.50
2022-08-09T09:24:37.239Z,77.50
2022-08-09T09:27:07.293Z,77.10
2022-08-09T09:30:13.894Z,75.80
2022-08-09T09:32:34.252Z,74.20
2022-08-09T09:35:10.124Z,74.60
2022-08-09T09:37:41.119Z,71.30
2022-08-09T09:40:11.815Z,72.20
2022-08-09T09:42:43.017Z,72.10
2022-08-09T09:45:26.480Z,71.70
2022-08-09T09:48:03.287Z,71.80
2022-08-09T09:50:49.559Z,70.10
2022-08-09T09:53:57.314Z,67.00
2022-08-09T09:56:20.126Z,68.00
2022-08-09T09:59:01.515Z,68.50
2022-08-09T10:01:38.060Z,68.30
2022-08-09T10:04:30.820Z,67.70
2022-08-09T10:07:03.523Z,64.10
2022-08-09T10:09:49.124Z,65.90
2022-08-09T10:12:31.664Z,64.50
2022-08-09T10:15:25.553Z,62.70
2022-08-09T10:18:12.809Z,61.10
2022-08-09T10:20:51.265Z,59.20
2022-08-09T10:23:23.807Z,60.80
2022-08-09T10:26:06.378Z,60.70
2022-08-09T10:28:41.675Z,59.10
2022-08-09T10:32:27.729Z,58.40
2022-08-09T10:34:10.344Z,58.60
2022-08-09T10:36:52.073Z,58.70
2022-08-09T10:39:40.777Z,57.10
2022-08-09T10:42:26.890Z,57.10
2022-08-09T10:45:04.305Z,56.00
2022-08-09T10:48:16.750Z,55.00
2022-08-09T10:50:57.848Z,55.00
2022-08-09T10:53:54.442Z,56.40
2022-08-09T10:56:34.369Z,55.70
2022-08-09T10:59:23.284Z,53.60
2022-08-09T11:03:14.939Z,54.10
2022-08-09T11:04:55.611Z,54.80
2022-08-09T11:07:57.546Z,54.50
2022-08-09T11:10:54.684Z,53.90
2022-08-09T11:13:49.826Z,51.80
2022-08-09T11:16:37.192Z,53.20
2022-08-09T11:19:10.232Z,51.80
2022-08-09T11:22:10.698Z,52.50
2022-08-09T11:25:09.017Z,51.40
2022-08-09T11:28:05.590Z,51.20
2022-08-09T11:30:36.525Z,52.10
2022-08-09T11:33:11.793Z,51.90
2022-08-09T11:35:50.347Z,50.80
2022-08-09T11:38:33.229Z,51.30
2022-08-09T11:41:05.437Z,51.10
2022-08-09T11:43:45.782Z,51.70
2022-08-09T11:46:26.624Z,52.10
2022-08-09T11:49:05.096Z,52.00
2022-08-09T11:53:00.491Z,52.10
2022-08-09T11:55:39.854Z,51.30
2022-08-09T11:58:14.578Z,50.00
2022-08-09T12:01:03.463Z,51.20
2022-08-09T12:03:56.149Z,50.00
2022-08-09T12:06:32.824Z,50.20
2022-08-09T12:09:17.521Z,50.50
2022-08-09T12:12:03.360Z,50.50
2022-08-09T12:14:40.806Z,50.60
2022-08-09T12:17:34.035Z,51.00
2022-08-09T12:20:21.996Z,51.30
2022-08-09T12:22:59.694Z,50.80
2022-08-09T12:25:37.414Z,50.60
2022-08-09T12:29:00.355Z,51.20
2022-08-09T12:31:58.240Z,50.90
2022-08-09T12:34:17.813Z,50.40
2022-08-09T12:36:53.142Z,51.00
2022-08-09T12:39:26.815Z,50.00
2022-08-09T12:41:55.437Z,50.70
2022-08-09T12:44:25.404Z,50.80
2022-08-09T12:47:06.461Z,50.70
2022-08-09T12:49:41.104Z,50.50
2022-08-09T12:52:21.085Z,50.20
2022-08-09T12:56:15.820Z,49.80
2022-08-09T12:58:24.432Z,49.90
2022-08-09T13:00:56.184Z,49.40
2022-08-09T13:03:53.029Z,49.10
2022-08-09T13:06:33.959Z,49.80
2022-08-09T13:09:30.593Z,48.90
2022-08-09T13:12:03.210Z,50.00
2022-08-09T13:14:42.753Z,49.00
2022-08-09T13:17:44.311Z,49.40
2022-08-09T13:20:13.962Z,50.00
2022-08-09T13:23:01.624Z,49.70
2022-08-09T13:25:54.660Z,49.40
2022-08-09T13:28:33.754Z,48.90
2022-08-09T13:32:16.284Z,49.10
2022-08-09T13:33:54.760Z,48.90
2022-08-09T13:36:41.032Z,48.60
2022-08-09T13:41:55.965Z,48.50
2022-08-09T13:42:02.149Z,48.70
2022-08-09T13:44:30.774Z,48.30
2022-08-09T13:47:30.807Z,47.90
2022-08-09T13:49:57.492Z,48.30
2022-08-09T13:52:33.981Z,48.40
2022-08-09T13:55:07.416Z,47.90
2022-08-09T13:57:56.248Z,47.80
2022-08-09T14:00:28.302Z,47.20
2022-08-09T14:03:16.817Z,47.40
2022-08-09T14:05:58.479Z,47.40
2022-08-09T14:08:33.830Z,47.50
2022-08-09T14:11:01.653Z,47.60
2022-08-09T14:14:23.328Z,47.70
2022-08-09T14:16:28.459Z,47.80
2022-08-09T14:18:58.210Z,47.50
2022-08-09T14:21:29.323Z,47.60
2022-08-09T14:24:05.586Z,47.60
2022-08-09T14:26:38.288Z,47.60
2022-08-09T14:30:18.661Z,47.60
2022-08-09T14:31:56.101Z,47.70
2022-08-09T14:34:27.428Z,47.90
2022-08-09T14:37:06.526Z,47.70
2022-08-09T14:39:47.900Z,47.50
2022-08-09T14:42:40.505Z,47.20
2022-08-09T14:46:46.317Z,47.40
2022-08-09T14:48:02.061Z,47.40
2022-08-09T14:50:40.345Z,47.60
2022-08-09T14:53:11.728Z,47.30
2022-08-09T14:55:49.889Z,47.50
2022-08-09T14:58:18.657Z,47.80
2022-08-09T15:00:48.559Z,47.50
2022-08-09T15:03:22.523Z,47.40
2022-08-09T15:05:54.745Z,47.30
2022-08-09T15:08:26.210Z,47.00
2022-08-09T15:11:00.313Z,46.60
2022-08-09T15:13:56.224Z,46.80
2022-08-09T15:16:21.037Z,47.00
2022-08-09T15:18:53.183Z,47.10
2022-08-09T15:22:00.702Z,47.20
2022-08-09T15:24:12.905Z,47.10
2022-08-09T15:26:46.704Z,47.20
2022-08-09T15:30:56.453Z,47.30
2022-08-09T15:32:28.940Z,47.30
2022-08-09T15:35:01.664Z,47.30
2022-08-09T15:38:10.688Z,47.30
2022-08-09T15:40:43.717Z,47.30
2022-08-09T15:43:17.535Z,47.10
2022-08-09T15:46:07.614Z,47.20
2022-08-09T15:48:37.088Z,47.40
2022-08-09T15:51:11.473Z,47.60
2022-08-09T15:54:04.878Z,47.70
2022-08-09T15:56:40.004Z,48.10
2022-08-09T15:59:07.744Z,48.40
2022-08-09T16:01:36.005Z,48.30
2022-08-09T16:04:04.385Z,48.50
2022-08-09T16:06:37.340Z,48.50
2022-08-09T16:09:06.225Z,48.60
2022-08-09T16:11:34.179Z,48.70
2022-08-09T16:14:08.017Z,49.00
2022-08-09T16:16:49.384Z,49.40
2022-08-09T16:19:19.305Z,50.00
2022-08-09T16:21:52.069Z,50.60
2022-08-09T16:24:33.434Z,51.70
2022-08-09T16:27:05.307Z,51.30
2022-08-09T16:29:37.523Z,51.80
2022-08-09T16:32:35.134Z,52.00
2022-08-09T16:35:03.501Z,52.60
2022-08-09T16:37:55.091Z,53.20
2022-08-09T16:40:29.721Z,53.60
2022-08-09T16:43:11.324Z,53.90
2022-08-09T16:45:44.049Z,54.30
2022-08-09T16:48:41.447Z,54.40
2022-08-09T16:51:08.362Z,54.50
2022-08-09T16:56:34.557Z,55.20
2022-08-09T16:59:10.698Z,54.80
2022-08-09T17:01:39.366Z,55.80
2022-08-09T17:04:13.819Z,55.40
2022-08-09T17:08:44.725Z,55.10
2022-08-09T17:09:47.074Z,55.20
2022-08-09T17:12:16.185Z,55.10
2022-08-09T17:14:49.032Z,55.50
2022-08-09T17:17:27.223Z,55.20
2022-08-09T17:20:28.586Z,55.20
2022-08-09T17:22:52.481Z,55.10
2022-08-09T17:25:23.296Z,55.40
2022-08-09T17:27:54.688Z,55.50
2022-08-09T17:30:25.774Z,55.40
2022-08-09T17:32:57.682Z,55.80
2022-08-09T17:35:33.918Z,55.90
2022-08-09T17:38:12.906Z,56.90
2022-08-09T17:40:47.268Z,56.40
2022-08-09T17:43:34.618Z,56.60
2022-08-09T17:46:09.837Z,56.50
2022-08-09T17:48:52.487Z,56.60
2022-08-09T17:51:30.213Z,57.30
2022-08-09T17:54:07.100Z,58.20
2022-08-09T17:56:50.196Z,57.50
2022-08-09T17:59:18.240Z,57.90
2022-08-09T18:02:06.400Z,58.00
2022-08-09T18:04:51.024Z,57.60
2022-08-09T18:07:23.495Z,58.40
2022-08-09T18:10:04.602Z,58.30
2022-08-09T18:12:40.608Z,58.10
2022-08-09T18:15:21.335Z,58.70
2022-08-09T18:18:25.770Z,58.60
2022-08-09T18:21:18.943Z,58.80
2022-08-09T18:24:09.675Z,58.70
2022-08-09T18:26:48.233Z,59.70
2022-08-09T18:30:36.327Z,59.00
2022-08-09T18:32:07.886Z,59.20
2022-08-09T18:34:36.448Z,60.10
2022-08-09T18:37:47.798Z,59.60
2022-08-09T18:40:02.050Z,59.80
2022-08-09T18:42:29.957Z,60.00
2022-08-09T18:45:08.610Z,61.30
2022-08-09T18:47:38.256Z,60.80
2022-08-09T18:50:08.956Z,60.70
2022-08-09T18:52:38.975Z,61.00
2022-08-09T18:55:13.512Z,61.80
2022-08-09T18:57:43.461Z,61.50
2022-08-09T19:00:19.147Z,62.00
2022-08-09T19:02:50.972Z,62.30
2022-08-09T19:05:48.738Z,62.10
2022-08-09T19:08:14.167Z,62.60
2022-08-09T19:10:47.921Z,63.00
2022-08-09T19:13:20.546Z,64.00
2022-08-09T19:15:52.645Z,63.70
2022-08-09T19:18:33.466Z,63.70
2022-08-09T19:21:11.469Z,64.30
2022-08-09T19:24:35.829Z,64.00
2022-08-09T19:26:31.641Z,64.90
2022-08-09T19:29:03.085Z,64.90
2022-08-09T19:31:45.067Z,65.10
2022-08-09T19:34:21.989Z,65.50
2022-08-09T19:36:59.366Z,65.80
2022-08-09T19:39:29.127Z,67.40
2022-08-09T19:42:15.154Z,66.50
2022-08-09T19:44:51.294Z,67.30
2022-08-09T19:47:30.055Z,66.70
2022-08-09T19:50:51.050Z,67.10
2022-08-09T19:52:55.141Z,67.20
2022-08-09T19:55:30.562Z,67.40
2022-08-09T19:58:01.872Z,67.90
2022-08-09T20:00:30.050Z,68.10
2022-08-09T20:04:27.881Z,68.60
2022-08-09T20:05:50.520Z,68.60
2022-08-09T20:08:25.133Z,68.80
2022-08-09T20:11:04.933Z,69.40
2022-08-09T20:13:37.048Z,70.60
2022-08-09T20:16:37.771Z,70.10
2022-08-09T20:19:42.282Z,71.00
2022-08-09T20:21:56.554Z,71.00
2022-08-09T20:24:29.913Z,71.40
2022-08-09T20:27:05.638Z,72.10
2022-08-09T20:29:38.602Z,72.20
2022-08-09T20:32:30.973Z,72.40
2022-08-09T20:34:59.205Z,73.20
2022-08-09T20:38:18.594Z,73.30
2022-08-09T20:40:26.677Z,73.30
2022-08-09T20:43:18.049Z,73.60
2022-08-09T20:45:57.516Z,74.10
2022-08-09T20:48:30.984Z,74.40
2022-08-09T20:51:01.432Z,75.00
2022-08-09T20:53:36.977Z,75.80
2022-08-09T20:56:20.114Z,76.00
2022-08-09T20:58:49.997Z,76.50
2022-08-09T21:01:35.331Z,77.60
2022-08-09T21:05:52.229Z,77.40
2022-08-09T21:06:59.627Z,77.60
2022-08-09T21:09:56.769Z,78.60
2022-08-09T21:12:32.187Z,79.60
2022-08-09T21:15:16.530Z,79.80
2022-08-09T21:18:21.163Z,80.30
2022-08-09T21:20:39.280Z,80.70
2022-08-09T21:23:09.148Z,81.10
2022-08-09T21:25:59.543Z,82.00
2022-08-09T21:28:35.832Z,82.80
2022-08-09T21:31:16.162Z,83.80
2022-08-09T21:33:52.954Z,84.20
2022-08-09T21:36:22.954Z,84.50
2022-08-09T21:38:57.195Z,85.80
2022-08-09T21:42:05.974Z,85.70
2022-08-09T21:44:34.223Z,89.60
2022-08-09T21:47:07.956Z,86.70
2022-08-09T21:49:39.780Z,87.20
2022-08-09T21:52:16.578Z,87.70
2022-08-09T21:54:59.510Z,88.40
2022-08-09T21:57:39.120Z,90.20
2022-08-09T22:00:37.163Z,89.70
2022-08-09T22:03:12.593Z,89.90
2022-08-09T22:05:51.214Z,90.10
2022-08-09T22:08:22.956Z,90.40
2022-08-09T22:11:01.013Z,90.40
2022-08-09T22:13:46.146Z,90.70
2022-08-09T22:16:17.787Z,90.70
2022-08-09T22:18:53.215Z,91.00
2022-08-09T22:21:45.158Z,91.20
2022-08-09T22:24:21.193Z,91.50
2022-08-09T22:26:55.067Z,91.50
2022-08-09T22:29:28.751Z,91.70
2022-08-09T22:32:02.186Z,91.80
2022-08-09T22:34:31.282Z,91.90
2022-08-09T22:37:02.329Z,92.10
2022-08-09T22:39:57.373Z,92.20
2022-08-09T22:42:24.979Z,92.40
2022-08-09T22:45:00.163Z,92.50
2022-08-09T22:48:11.471Z,92.50
2022-08-09T22:50:32.854Z,92.60
2022-08-09T22:53:05.116Z,92.60
2022-08-09T22:56:06.187Z,92.90
2022-08-09T22:58:32.825Z,92.90
2022-08-09T23:01:03.965Z,93.00
2022-08-09T23:04:03.465Z,93.00
2022-08-09T23:06:32.718Z,93.10
2022-08-09T23:09:06.918Z,93.20
2022-08-09T23:11:34.965Z,93.30
2022-08-09T23:14:03.896Z,93.50
2022-08-09T23:16:32.103Z,93.60
2022-08-09T23:19:00.921Z,93.60
2022-08-09T23:21:34.329Z,93.80
2022-08-09T23:24:08.040Z,93.90
2022-08-09T23:26:40.376Z,94.00
2022-08-09T23:29:14.040Z,94.40
2022-08-09T23:31:45.762Z,94.20
2022-08-09T23:34:13.889Z,94.20
2022-08-09T23:36:48.892Z,94.40
2022-08-09T23:39:16.690Z,94.40
2022-08-09T23:41:45.946Z,94.50
2022-08-09T23:44:13.615Z,94.70
2022-08-09T23:46:42.934Z,94.70
2022-08-09T23:49:11.738Z,94.90
2022-08-09T23:51:40.365Z,94.90
2022-08-09T23:54:09.140Z,94.90
2022-08-09T23:56:52.833Z,95.00
2022-08-09T23:59:24.748Z,95.10
